createdAt,value
2019-02-04T00:01:21.387Z,98352.59
2019-02-04T00:03:49.568Z,98360.98
2019-02-04T00:06:17.773Z,98363.56
2019-02-04T00:08:45.954Z,98368.65
2019-02-04T00:11:14.146Z,98369.07
2019-02-04T00:13:42.346Z,98367.77
2019-02-04T00:16:10.522Z,98367.77
2019-02-04T00:18:38.704Z,98371.12
2019-02-04T00:21:06.895Z,98367.69
2019-02-04T00:23:35.076Z,98373.58
2019-02-04T00:26:03.267Z,98375.27
2019-02-04T00:28:31.449Z,98382.44
2019-02-04T00:30:59.629Z,98376.89
2019-02-04T00:33:27.838Z,98382.36
2019-02-04T00:35:56.310Z,98387.86
2019-02-04T00:38:24.494Z,98389.52
2019-02-04T00:40:52.782Z,98394.59
2019-02-04T00:43:20.971Z,98393.72
2019-02-04T00:45:49.168Z,98397.06
2019-02-04T00:48:17.358Z,98395.30
2019-02-04T00:50:45.625Z,98398.69
2019-02-04T00:53:13.822Z,98403.72
2019-02-04T00:55:42.017Z,98405.80
2019-02-04T00:58:10.215Z,98405.72
2019-02-04T01:00:38.405Z,98411.69
2019-02-04T01:03:06.584Z,98416.37
2019-02-04T01:05:34.774Z,98422.27
2019-02-04T01:08:03.242Z,98420.53
2019-02-04T01:10:31.518Z,98429.04
2019-02-04T01:12:59.700Z,98433.70
2019-02-04T01:15:27.954Z,98440.00
2019-02-04T01:17:56.131Z,98437.47
2019-02-04T01:20:29.921Z,98438.27
2019-02-04T01:22:58.321Z,98441.62
2019-02-04T01:25:26.510Z,98439.00
2019-02-04T01:27:54.711Z,98445.30
2019-02-04T01:30:40.625Z,98446.49
2019-02-04T01:33:09.014Z,98450.68
2019-02-04T01:35:37.207Z,98454.03
2019-02-04T01:38:05.397Z,98455.22
2019-02-04T01:40:33.583Z,98462.37
2019-02-04T01:43:01.778Z,98462.71
2019-02-04T01:45:29.973Z,98476.25
2019-02-04T01:47:58.238Z,98473.71
2019-02-04T01:50:26.434Z,98472.91
2019-02-04T01:52:54.640Z,98471.67
2019-02-04T01:55:22.820Z,98476.80
2019-02-04T02:00:38.408Z,98481.95
2019-02-04T02:03:06.612Z,98489.11
2019-02-04T02:05:34.817Z,98494.15
2019-02-04T02:08:03.034Z,98499.69
2019-02-04T02:10:31.273Z,98498.84
2019-02-04T02:12:59.458Z,98504.72
2019-02-04T02:15:27.648Z,98506.37
2019-02-04T02:17:55.838Z,98507.09
2019-02-04T02:23:01.814Z,98516.18
2019-02-04T02:25:30.003Z,98510.17
2019-02-04T02:27:58.195Z,98515.97
2019-02-04T02:30:33.048Z,98511.89
2019-02-04T02:33:01.225Z,98516.78
2019-02-04T02:35:29.407Z,98523.83
2019-02-04T02:37:57.616Z,98522.72
2019-02-04T02:41:04.237Z,98521.26
2019-02-04T02:43:51.996Z,98526.00
2019-02-04T02:46:20.205Z,98523.33
2019-02-04T02:48:48.402Z,98533.74
2019-02-04T02:51:16.615Z,98536.19
2019-02-04T02:53:44.834Z,98535.25
2019-02-04T02:56:13.768Z,98532.67
2019-02-04T02:58:41.907Z,98544.03
2019-02-04T03:01:10.086Z,98544.35
2019-02-04T03:03:38.566Z,98545.98
2019-02-04T03:06:06.745Z,98552.69
2019-02-04T03:08:35.014Z,98548.05
2019-02-04T03:11:03.202Z,98549.42
2019-02-04T03:13:31.394Z,98543.98
2019-02-04T03:15:59.622Z,98552.85
2019-02-04T03:18:27.817Z,98556.64
2019-02-04T03:20:55.996Z,98559.93
2019-02-04T03:23:24.215Z,98562.73
2019-02-04T03:25:52.407Z,98564.33
2019-02-04T03:28:20.609Z,98565.87
2019-02-04T03:30:48.802Z,98569.52
2019-02-04T03:33:17.049Z,98569.42
2019-02-04T03:35:45.274Z,98575.75
2019-02-04T03:38:13.463Z,98582.45
2019-02-04T03:40:41.663Z,98587.89
2019-02-04T03:43:09.850Z,98591.59
2019-02-04T03:45:38.036Z,98597.40
2019-02-04T03:48:08.746Z,98599.78
2019-02-04T03:50:36.126Z,98597.08
2019-02-04T03:53:04.315Z,98599.08
2019-02-04T03:55:32.506Z,98601.83
2019-02-04T03:58:00.731Z,98555.91
2019-02-04T04:03:23.133Z,98608.71
2019-02-04T04:05:51.327Z,98546.45
2019-02-04T04:08:19.634Z,98597.13
2019-02-04T04:10:47.825Z,98610.69
2019-02-04T04:13:16.016Z,98618.97
2019-02-04T04:15:44.522Z,98626.92
2019-02-04T04:18:16.069Z,98623.84
2019-02-04T04:20:42.631Z,98628.79
2019-02-04T04:23:10.825Z,98632.91
2019-02-04T04:25:39.028Z,98636.16
2019-02-04T04:28:07.218Z,98639.36
2019-02-04T04:30:35.600Z,98638.45
2019-02-04T04:33:04.328Z,98645.92
2019-02-04T04:35:32.540Z,98643.75
2019-02-04T04:38:01.648Z,98646.48
2019-02-04T04:40:29.861Z,98653.05
2019-02-04T04:42:58.314Z,98660.52
2019-02-04T04:45:26.973Z,98653.28
2019-02-04T04:47:55.174Z,98665.08
2019-02-04T04:50:23.389Z,98662.38
2019-02-04T04:52:51.615Z,98667.31
2019-02-04T04:55:37.530Z,98663.45
2019-02-04T04:58:06.084Z,98668.89
2019-02-04T05:00:34.271Z,98671.42
2019-02-04T05:03:02.478Z,98668.77
2019-02-04T05:05:30.668Z,98669.98
2019-02-04T05:07:58.885Z,98676.71
2019-02-04T05:10:27.073Z,98679.12
2019-02-04T05:12:55.277Z,98690.78
2019-02-04T05:15:41.873Z,98693.25
2019-02-04T05:18:10.172Z,98696.86
2019-02-04T05:20:38.368Z,98705.52
2019-02-04T05:23:06.548Z,98705.46
2019-02-04T05:25:34.938Z,98712.13
2019-02-04T05:31:26.988Z,98715.51
2019-02-04T05:33:55.256Z,98719.65
2019-02-04T05:36:23.477Z,98723.03
2019-02-04T05:38:51.643Z,98724.17
2019-02-04T05:41:19.851Z,98726.13
2019-02-04T05:43:48.047Z,98731.44
2019-02-04T05:46:16.244Z,98737.63
2019-02-04T05:48:49.487Z,98740.97
2019-02-04T05:51:14.419Z,98749.06
2019-02-04T05:53:42.603Z,98751.66
2019-02-04T05:56:11.003Z,98747.42
2019-02-04T05:58:39.210Z,98750.33
2019-02-04T06:01:07.572Z,98752.00
2019-02-04T06:03:35.766Z,98753.67
2019-02-04T06:06:03.958Z,98754.88
2019-02-04T06:08:32.144Z,98752.75
2019-02-04T06:11:00.412Z,98746.38
2019-02-04T06:13:28.597Z,98749.28
2019-02-04T06:15:56.784Z,98748.42
2019-02-04T06:18:24.965Z,98751.61
2019-02-04T06:20:53.219Z,98756.47
2019-02-04T06:23:21.404Z,98759.14
2019-02-04T06:25:49.601Z,98760.13
2019-02-04T06:28:17.788Z,98761.95
2019-02-04T06:30:45.985Z,98756.89
2019-02-04T06:33:14.172Z,98763.52
2019-02-04T06:35:42.355Z,98767.72
2019-02-04T06:38:10.623Z,98771.92
2019-02-04T06:40:38.816Z,98776.97
2019-02-04T06:43:07.931Z,98784.08
2019-02-04T06:45:36.119Z,98782.81
2019-02-04T06:48:05.102Z,98786.12
2019-02-04T06:50:33.325Z,98783.59
2019-02-04T06:53:01.557Z,98788.14
2019-02-04T06:55:31.883Z,98787.22
2019-02-04T06:58:00.114Z,98789.27
2019-02-04T07:00:28.300Z,98793.53
2019-02-04T07:02:56.489Z,98792.33
2019-02-04T07:05:24.690Z,98792.98
2019-02-04T07:07:52.954Z,98801.24
2019-02-04T07:10:23.435Z,98803.70
2019-02-04T07:12:51.653Z,98803.56
2019-02-04T07:15:19.866Z,98802.84
2019-02-04T07:17:48.124Z,98796.96
2019-02-04T07:20:19.269Z,98802.84
2019-02-04T07:22:47.904Z,98806.77
2019-02-04T07:25:16.827Z,98808.95
2019-02-04T07:27:46.531Z,98814.06
2019-02-04T07:30:17.620Z,98812.39
2019-02-04T07:32:45.833Z,98808.73
2019-02-04T07:35:16.234Z,98806.75
2019-02-04T07:37:44.433Z,98811.05
2019-02-04T07:40:21.825Z,98814.98
2019-02-04T07:42:51.331Z,98819.37
2019-02-04T07:45:19.478Z,98823.30
2019-02-04T07:47:47.948Z,98823.91
2019-02-04T07:50:16.140Z,98821.89
2019-02-04T07:52:44.323Z,98820.34
2019-02-04T07:55:12.559Z,98817.16
2019-02-04T07:57:40.744Z,98825.35
2019-02-04T08:00:20.143Z,98833.45
2019-02-04T08:02:48.308Z,98836.89
2019-02-04T08:05:16.494Z,98838.28
2019-02-04T08:07:44.751Z,98845.50
2019-02-04T08:10:18.752Z,98843.09
2019-02-04T08:12:47.874Z,98851.86
2019-02-04T08:15:27.226Z,98849.59
2019-02-04T08:17:56.253Z,98841.30
2019-02-04T08:20:24.679Z,98843.58
2019-02-04T08:22:52.896Z,98851.02
2019-02-04T08:25:21.091Z,98849.59
2019-02-04T08:27:49.289Z,98849.78
2019-02-04T08:30:28.959Z,98854.17
2019-02-04T08:33:03.776Z,98856.06
2019-02-04T08:35:32.397Z,98853.78
2019-02-04T08:38:06.683Z,98864.09
2019-02-04T08:40:35.200Z,98865.02
2019-02-04T08:43:03.439Z,98871.46
2019-02-04T08:45:31.636Z,98864.22
2019-02-04T08:47:59.882Z,98862.48
2019-02-04T08:50:28.332Z,98871.34
2019-02-04T08:52:56.527Z,98873.55
2019-02-04T08:55:24.724Z,98869.22
2019-02-04T08:57:53.382Z,98872.73
2019-02-04T09:00:22.910Z,98869.97
2019-02-04T09:02:51.212Z,98883.34
2019-02-04T09:05:20.728Z,98870.08
2019-02-04T09:07:48.920Z,98877.03
2019-02-04T09:10:23.082Z,98881.92
2019-02-04T09:12:51.531Z,98879.25
2019-02-04T09:15:19.843Z,98879.45
2019-02-04T09:17:48.134Z,98876.54
2019-02-04T09:20:17.440Z,98885.47
2019-02-04T09:22:46.138Z,98881.72
2019-02-04T09:25:18.572Z,98880.63
2019-02-04T09:27:46.797Z,98876.18
2019-02-04T09:30:25.525Z,98880.09
2019-02-04T09:32:53.874Z,98886.97
2019-02-04T09:35:22.532Z,98884.19
2019-02-04T09:37:50.875Z,98885.69
2019-02-04T09:40:22.262Z,98884.00
2019-02-04T09:42:50.620Z,98891.55
2019-02-04T09:45:18.805Z,98889.13
2019-02-04T09:47:47.000Z,98889.36
2019-02-04T09:50:21.999Z,98887.96
2019-02-04T09:52:47.526Z,98873.08
2019-02-04T09:55:18.467Z,98874.10
2019-02-04T09:57:46.959Z,98877.69
2019-02-04T10:00:21.507Z,98881.24
2019-02-04T10:02:49.767Z,98884.74
2019-02-04T10:05:18.931Z,98889.13
2019-02-04T10:07:47.147Z,98886.59
2019-02-04T10:10:18.464Z,98888.41
2019-02-04T10:12:46.639Z,98882.17
2019-02-04T10:15:17.621Z,98879.80
2019-02-04T10:17:45.903Z,98887.16
2019-02-04T10:20:16.807Z,98885.99
2019-02-04T10:22:45.404Z,98876.41
2019-02-04T10:25:16.769Z,98873.62
2019-02-04T10:27:45.023Z,98871.19
2019-02-04T10:30:21.382Z,98870.82
2019-02-04T10:32:49.628Z,98871.39
2019-02-04T10:35:18.286Z,98862.51
2019-02-04T10:37:48.102Z,98864.68
2019-02-04T10:40:24.701Z,98862.61
2019-02-04T10:42:53.011Z,98862.24
2019-02-04T10:45:21.275Z,98861.08
2019-02-04T10:47:50.712Z,98867.63
2019-02-04T10:50:24.286Z,98860.53
2019-02-04T10:52:52.559Z,98856.88
2019-02-04T10:55:20.748Z,98855.19
2019-02-04T10:57:48.982Z,98854.44
2019-02-04T11:00:22.557Z,98848.98
2019-02-04T11:02:50.771Z,98851.20
2019-02-04T11:05:21.915Z,98849.19
2019-02-04T11:07:50.157Z,98853.42
2019-02-04T11:10:20.806Z,98848.86
2019-02-04T11:12:49.054Z,98849.77
2019-02-04T11:15:17.686Z,98847.69
2019-02-04T11:17:45.910Z,98843.46
2019-02-04T11:20:17.771Z,98848.69
2019-02-04T11:22:45.996Z,98843.66
2019-02-04T11:25:14.190Z,98850.89
2019-02-04T11:27:42.464Z,98850.52
2019-02-04T11:30:16.456Z,98850.52
2019-02-04T11:32:44.655Z,98851.28
2019-02-04T11:35:13.136Z,98849.58
2019-02-04T11:37:41.332Z,98842.24
2019-02-04T11:40:12.844Z,98846.00
2019-02-04T11:42:41.016Z,98844.39
2019-02-04T11:45:09.838Z,98835.09
2019-02-04T11:47:38.001Z,98835.13
2019-02-04T11:50:09.750Z,98835.94
2019-02-04T11:52:37.961Z,98834.33
2019-02-04T11:55:09.691Z,98830.52
2019-02-04T11:57:37.920Z,98824.17
2019-02-04T12:00:17.548Z,98817.45
2019-02-04T12:02:45.743Z,98811.53
2019-02-04T12:05:16.934Z,98819.71
2019-02-04T12:07:45.268Z,98828.28
2019-02-04T12:10:16.716Z,98826.58
2019-02-04T12:12:44.917Z,98823.98
2019-02-04T12:15:18.605Z,98822.16
2019-02-04T12:17:47.712Z,98816.61
2019-02-04T12:20:17.547Z,98812.73
2019-02-04T12:22:45.804Z,98815.61
2019-02-04T12:25:22.946Z,98811.70
2019-02-04T12:27:51.075Z,98810.05
2019-02-04T12:30:22.527Z,98808.69
2019-02-04T12:32:50.707Z,98803.56
2019-02-04T12:35:18.900Z,98802.58
2019-02-04T12:37:47.085Z,98803.46
2019-02-04T12:40:16.969Z,98802.99
2019-02-04T12:42:45.153Z,98808.88
2019-02-04T12:45:19.423Z,98802.53
2019-02-04T12:47:47.612Z,98796.17
2019-02-04T12:50:16.507Z,98789.02
2019-02-04T12:52:44.677Z,98791.66
2019-02-04T12:55:18.166Z,98793.39
2019-02-04T12:57:46.617Z,98792.56
2019-02-04T13:00:17.820Z,98791.75
2019-02-04T13:02:46.012Z,98792.22
2019-02-04T13:05:17.145Z,98780.88
2019-02-04T13:07:45.330Z,98783.05
2019-02-04T13:10:15.969Z,98775.06
2019-02-04T13:12:44.197Z,98774.69
2019-02-04T13:15:15.664Z,98773.08
2019-02-04T13:17:43.842Z,98769.31
2019-02-04T13:20:15.246Z,98765.50
2019-02-04T13:22:43.425Z,98758.36
2019-02-04T13:25:17.300Z,98756.74
2019-02-04T13:27:45.471Z,98764.70
2019-02-04T13:30:19.739Z,98765.98
2019-02-04T13:32:47.928Z,98768.13
2019-02-04T13:35:17.852Z,98760.09
2019-02-04T13:37:46.031Z,98762.63
2019-02-04T13:40:30.856Z,98749.42
2019-02-04T13:42:59.040Z,98747.30
2019-02-04T13:45:27.373Z,98749.74
2019-02-04T13:47:55.586Z,98739.95
2019-02-04T13:50:23.943Z,98744.57
2019-02-04T13:52:52.564Z,98741.17
2019-02-04T13:55:25.804Z,98729.38
2019-02-04T13:57:53.991Z,98722.60
2019-02-04T14:00:22.172Z,98727.73
2019-02-04T14:02:58.770Z,98727.77
2019-02-04T14:05:20.266Z,98726.50
2019-02-04T14:07:48.444Z,98723.06
2019-02-04T14:10:18.782Z,98725.14
2019-02-04T14:12:46.957Z,98718.31
2019-02-04T14:15:16.719Z,98720.81
2019-02-04T14:17:44.903Z,98713.99
2019-02-04T14:20:24.806Z,98708.48
2019-02-04T14:22:53.495Z,98702.52
2019-02-04T14:25:21.743Z,98689.38
2019-02-04T14:27:49.949Z,98688.55
2019-02-04T14:30:26.666Z,98688.92
2019-02-04T14:32:54.844Z,98677.40
2019-02-04T14:35:23.037Z,98671.38
2019-02-04T14:37:51.226Z,98673.50
2019-02-04T14:40:19.396Z,98664.56
2019-02-04T14:42:50.883Z,98664.52
2019-02-04T14:45:31.320Z,98664.89
2019-02-04T14:48:17.995Z,98664.05
2019-02-04T14:51:07.219Z,98661.80
2019-02-04T14:54:02.802Z,98651.45
2019-02-04T14:56:49.041Z,98642.33
2019-02-04T14:59:23.448Z,98645.26
2019-02-04T15:02:24.598Z,98637.45
2019-02-04T15:05:01.966Z,98635.52
2019-02-04T15:08:04.568Z,98632.94
2019-02-04T15:10:41.823Z,98638.73
2019-02-04T15:13:28.195Z,98637.27
2019-02-04T15:16:11.165Z,98644.50
2019-02-04T15:18:57.606Z,98649.53
2019-02-04T15:21:34.847Z,98651.78
2019-02-04T15:24:09.215Z,98650.69
2019-02-04T15:26:46.211Z,98655.00
2019-02-04T15:29:20.352Z,98660.61
2019-02-04T15:31:54.831Z,98662.70
2019-02-04T15:34:32.172Z,98666.94
2019-02-04T15:37:12.471Z,98664.98
2019-02-04T15:39:49.563Z,98664.39
2019-02-04T15:42:31.979Z,98670.28
2019-02-04T15:45:18.163Z,98670.61
2019-02-04T15:47:49.739Z,98678.70
2019-02-04T15:50:23.965Z,98671.95
2019-02-04T15:52:52.194Z,98681.97
2019-02-04T15:55:20.407Z,98681.26
2019-02-04T15:57:48.611Z,98682.50
2019-02-04T16:00:16.821Z,98687.95
2019-02-04T16:02:46.983Z,98682.83
2019-02-04T16:05:15.249Z,98680.30
2019-02-04T16:07:43.554Z,98678.23
2019-02-04T16:10:14.487Z,98677.27
2019-02-04T16:12:42.715Z,98681.13
2019-02-04T16:15:12.901Z,98678.12
2019-02-04T16:17:41.134Z,98674.67
2019-02-04T16:20:21.001Z,98674.20
2019-02-04T16:22:58.041Z,98675.95
2019-02-04T16:25:19.169Z,98675.28
2019-02-04T16:27:47.354Z,98677.98
2019-02-04T16:30:17.689Z,98686.55
2019-02-04T16:32:45.871Z,98681.43
2019-02-04T16:35:16.385Z,98685.70
2019-02-04T16:37:44.563Z,98694.20
2019-02-04T16:40:15.111Z,98688.34
2019-02-04T16:42:43.255Z,98692.66
2019-02-04T16:45:13.582Z,98699.44
2019-02-04T16:47:41.763Z,98699.48
2019-02-04T16:50:18.852Z,98696.69
2019-02-04T16:52:48.180Z,98700.44
2019-02-04T16:55:16.429Z,98696.27
2019-02-04T16:57:45.079Z,98702.97
2019-02-04T17:00:22.898Z,98705.66
2019-02-04T17:02:51.053Z,98708.55
2019-02-04T17:05:20.282Z,98709.75
2019-02-04T17:07:49.415Z,98710.79
2019-02-04T17:10:20.885Z,98708.50
2019-02-04T17:12:49.109Z,98708.97
2019-02-04T17:15:17.300Z,98706.94
2019-02-04T17:17:45.757Z,98710.91
2019-02-04T17:20:28.865Z,98708.84
2019-02-04T17:22:57.079Z,98704.22
2019-02-04T17:25:25.292Z,98708.55
2019-02-04T17:27:53.480Z,98708.60
2019-02-04T17:30:24.143Z,98711.92
2019-02-04T17:32:52.322Z,98709.87
2019-02-04T17:35:20.724Z,98714.81
2019-02-04T17:37:48.903Z,98707.22
2019-02-04T17:40:24.253Z,98702.16
2019-02-04T17:42:53.675Z,98702.89
2019-02-04T17:45:21.868Z,98701.02
2019-02-04T17:47:50.995Z,98704.34
2019-02-04T17:50:20.520Z,98713.68
2019-02-04T17:52:49.043Z,98709.71
2019-02-04T17:55:19.834Z,98711.27
2019-02-04T17:57:48.017Z,98717.19
2019-02-04T18:00:36.583Z,98715.75
2019-02-04T18:03:05.027Z,98718.28
2019-02-04T18:05:33.276Z,98717.81
2019-02-04T18:08:01.457Z,98713.69
2019-02-04T18:10:30.018Z,98720.81
2019-02-04T18:12:58.226Z,98711.95
2019-02-04T18:15:26.463Z,98712.80
2019-02-04T18:17:54.615Z,98722.08
2019-02-04T18:20:22.797Z,98715.28
2019-02-04T18:22:50.982Z,98709.19
2019-02-04T18:25:22.689Z,98704.30
2019-02-04T18:27:50.875Z,98705.39
2019-02-04T18:30:26.152Z,98708.72
2019-02-04T18:32:54.357Z,98712.63
2019-02-04T18:35:22.918Z,98720.02
2019-02-04T18:37:51.102Z,98729.91
2019-02-04T18:40:24.028Z,98726.55
2019-02-04T18:42:52.692Z,98729.55
2019-02-04T18:45:25.932Z,98736.67
2019-02-04T18:47:55.175Z,98737.03
2019-02-04T18:50:23.966Z,98734.38
2019-02-04T18:52:52.159Z,98736.41
2019-02-04T18:55:31.620Z,98731.30
2019-02-04T18:57:59.801Z,98731.30
2019-02-04T19:00:30.389Z,98735.09
2019-02-04T19:02:59.111Z,98727.87
2019-02-04T19:05:27.297Z,98728.77
2019-02-04T19:07:55.472Z,98734.33
2019-02-04T19:10:23.929Z,98725.52
2019-02-04T19:12:52.310Z,98730.64
2019-02-04T19:15:23.079Z,98729.80
2019-02-04T19:17:52.099Z,98722.20
2019-02-04T19:20:23.628Z,98729.06
2019-02-04T19:22:52.005Z,98720.14
2019-02-04T19:25:21.448Z,98720.94
2019-02-04T19:27:50.676Z,98717.49
2019-02-04T19:30:24.927Z,98713.69
2019-02-04T19:32:53.584Z,98708.62
2019-02-04T19:35:21.797Z,98701.42
2019-02-04T19:37:49.977Z,98706.84
2019-02-04T19:40:18.697Z,98702.98
2019-02-04T19:42:46.935Z,98697.92
2019-02-04T19:45:17.651Z,98694.48
2019-02-04T19:47:45.867Z,98691.71
2019-02-04T19:50:19.988Z,98689.56
2019-02-04T19:52:48.191Z,98694.98
2019-02-04T19:55:16.365Z,98693.41
2019-02-04T19:57:44.568Z,98701.36
2019-02-04T20:00:23.629Z,98703.16
2019-02-04T20:02:52.653Z,98698.03
2019-02-04T20:05:31.823Z,98703.09
2019-02-04T20:08:00.140Z,98701.48
2019-02-04T20:10:31.979Z,98704.98
2019-02-04T20:13:00.158Z,98711.24
2019-02-04T20:15:29.665Z,98709.19
2019-02-04T20:17:57.855Z,98703.77
2019-02-04T20:20:26.174Z,98709.42
2019-02-04T20:22:54.539Z,98706.55
2019-02-04T20:25:28.076Z,98698.53
2019-02-04T20:27:56.351Z,98699.30
2019-02-04T20:30:44.633Z,98698.42
2019-02-04T20:33:03.349Z,98702.74
2019-02-04T20:35:31.540Z,98712.98
2019-02-04T20:37:59.960Z,98710.10
2019-02-04T20:40:28.151Z,98714.31
2019-02-04T20:42:56.380Z,98720.70
2019-02-04T20:45:26.266Z,98710.28
2019-02-04T20:47:58.144Z,98718.88
2019-02-04T20:50:32.189Z,98717.61
2019-02-04T20:53:00.387Z,98712.08
2019-02-04T20:55:28.635Z,98720.14
2019-02-04T20:57:57.882Z,98716.95
2019-02-04T21:00:29.654Z,98723.64
2019-02-04T21:02:57.899Z,98707.25
2019-02-04T21:05:26.161Z,98729.26
2019-02-04T21:07:54.350Z,98729.44
2019-02-04T21:10:28.556Z,98738.05
2019-02-04T21:12:57.004Z,98735.08
2019-02-04T21:15:25.437Z,98739.08
2019-02-04T21:17:54.549Z,98735.34
2019-02-04T21:20:25.175Z,98733.34
2019-02-04T21:22:53.374Z,98742.77
2019-02-04T21:25:21.611Z,98734.02
2019-02-04T21:27:50.170Z,98734.02
2019-02-04T21:30:29.902Z,98734.97
2019-02-04T21:32:58.088Z,98730.03
2019-02-04T21:35:26.345Z,98731.61
2019-02-04T21:37:54.522Z,98733.29
2019-02-04T21:40:23.598Z,98727.38
2019-02-04T21:42:52.737Z,98735.41
2019-02-04T21:45:23.224Z,98729.08
2019-02-04T21:47:51.403Z,98723.28
2019-02-04T21:50:27.359Z,98719.08
2019-02-04T21:52:56.507Z,98722.02
2019-02-04T21:55:27.077Z,98714.02
2019-02-04T21:57:56.233Z,98715.75
2019-02-04T22:00:32.571Z,98702.39
2019-02-04T22:03:00.755Z,98708.52
2019-02-04T22:05:31.954Z,98705.57
2019-02-04T22:08:00.573Z,98703.51
2019-02-04T22:10:30.107Z,98695.86
2019-02-04T22:12:58.930Z,98693.70
2019-02-04T22:15:27.129Z,98700.92
2019-02-04T22:17:55.322Z,98701.24
2019-02-04T22:20:23.508Z,98696.95
2019-02-04T22:22:51.704Z,98699.54
2019-02-04T22:25:21.730Z,98706.25
2019-02-04T22:27:49.921Z,98706.25
2019-02-04T22:30:29.118Z,98709.98
2019-02-04T22:32:57.295Z,98701.01
2019-02-04T22:35:26.546Z,98707.75
2019-02-04T22:37:54.717Z,98703.59
2019-02-04T22:40:25.659Z,98701.12
2019-02-04T22:42:53.846Z,98697.69
2019-02-04T22:45:22.044Z,98698.03
2019-02-04T22:47:50.231Z,98698.39
2019-02-04T22:50:23.664Z,98696.18
2019-02-04T22:52:51.874Z,98692.39
2019-02-04T22:55:31.036Z,98691.06
2019-02-04T22:57:49.951Z,98694.86
2019-02-04T23:00:34.830Z,98690.21
2019-02-04T23:03:03.018Z,98684.80
2019-02-04T23:05:31.477Z,98681.47
2019-02-04T23:07:59.663Z,98690.33
2019-02-04T23:10:27.870Z,98689.18
2019-02-04T23:12:56.057Z,98690.15
2019-02-04T23:15:24.250Z,98684.18
2019-02-04T23:17:52.436Z,98684.67
2019-02-04T23:20:20.623Z,98686.88
2019-02-04T23:22:48.992Z,98677.91
2019-02-04T23:25:17.167Z,98684.12
2019-02-04T23:27:45.355Z,98687.50
2019-02-04T23:30:16.482Z,98693.89
2019-02-04T23:32:44.663Z,98689.73
2019-02-04T23:35:12.851Z,98686.83
2019-02-04T23:37:41.209Z,98691.95
2019-02-04T23:40:11.695Z,98682.61
2019-02-04T23:42:39.878Z,98679.30
2019-02-04T23:45:09.709Z,98662.25
2019-02-04T23:47:37.905Z,98669.28
2019-02-04T23:50:11.925Z,98670.14
2019-02-04T23:52:40.172Z,98671.41
2019-02-04T23:55:10.290Z,98661.28
2019-02-04T23:57:38.473Z,98662.19
